createdAt,value
2023-01-02T00:00:45.850Z,96647.63
2023-01-02T00:03:14.934Z,96643.84
2023-01-02T00:05:42.537Z,96637.09
2023-01-02T00:08:10.071Z,96626.75
2023-01-02T00:10:37.684Z,96618.31
2023-01-02T00:13:05.279Z,96630.81
2023-01-02T00:15:33.203Z,96641.03
2023-01-02T00:18:00.684Z,96631.22
2023-01-02T00:20:29.547Z,96636.94
2023-01-02T00:22:57.054Z,96623.84
2023-01-02T00:25:24.600Z,96621.22
2023-01-02T00:27:52.107Z,96615.81
2023-01-02T00:30:19.749Z,96623.59
2023-01-02T00:32:47.244Z,96614.41
2023-01-02T00:35:14.963Z,96610.03
2023-01-02T00:37:43.807Z,96599.06
2023-01-02T00:40:13.730Z,96602.66
2023-01-02T00:42:41.484Z,96596.50
2023-01-02T00:45:10.956Z,96586.78
2023-01-02T00:47:38.508Z,96599.28
2023-01-02T00:50:07.320Z,96607.06
2023-01-02T00:52:34.883Z,96600.31
2023-01-02T00:55:03.886Z,96610.88
2023-01-02T00:57:31.657Z,96604.53
2023-01-02T00:59:59.149Z,96599.72
2023-01-02T01:02:26.775Z,96592.38
2023-01-02T01:04:54.523Z,96604.63
2023-01-02T01:07:22.044Z,96597.25
2023-01-02T01:09:49.555Z,96605.41
2023-01-02T01:12:18.414Z,96604.88
2023-01-02T01:14:45.938Z,96613.22
2023-01-02T01:17:13.457Z,96610.25
2023-01-02T01:19:40.972Z,96615.97
2023-01-02T01:22:08.518Z,96618.88
2023-01-02T01:24:36.066Z,96612.09
2023-01-02T01:27:03.573Z,96608.66
2023-01-02T01:29:32.430Z,96617.78
2023-01-02T01:31:59.998Z,96617.66
2023-01-02T01:34:27.632Z,96606.25
2023-01-02T01:36:55.138Z,96602.63
2023-01-02T01:39:22.715Z,96598.44
2023-01-02T01:41:50.218Z,96595.66
2023-01-02T01:44:43.786Z,96596.25
2023-01-02T01:47:19.675Z,96587.72
2023-01-02T01:49:47.924Z,96581.75
2023-01-02T01:52:18.650Z,96577.00
2023-01-02T01:54:52.061Z,96572.09
2023-01-02T01:57:24.426Z,96579.19
2023-01-02T01:59:53.875Z,96582.06
2023-01-02T02:02:24.036Z,96584.16
2023-01-02T02:04:52.327Z,96580.09
2023-01-02T02:07:20.171Z,96572.03
2023-01-02T02:09:52.603Z,96577.38
2023-01-02T02:12:25.970Z,96572.63
2023-01-02T02:14:56.800Z,96567.50
2023-01-02T02:17:34.594Z,96564.03
2023-01-02T02:20:31.866Z,96558.72
2023-01-02T02:23:41.064Z,96559.41
2023-01-02T02:26:51.986Z,96550.28
2023-01-02T02:29:52.498Z,96548.75
2023-01-02T02:32:26.858Z,96545.94
2023-01-02T02:35:01.178Z,96541.63
2023-01-02T02:37:38.218Z,96527.31
2023-01-02T02:40:18.015Z,96542.88
2023-01-02T02:42:56.764Z,96539.28
2023-01-02T02:45:37.746Z,96539.84
2023-01-02T02:48:13.519Z,96529.84
2023-01-02T02:50:47.208Z,96521.75
2023-01-02T02:53:21.370Z,96516.63
2023-01-02T02:55:51.839Z,96523.97
2023-01-02T02:58:21.751Z,96524.81
2023-01-02T03:00:50.741Z,96528.00
2023-01-02T03:03:19.782Z,96521.63
2023-01-02T03:06:04.516Z,96524.28
2023-01-02T03:08:40.492Z,96529.53
2023-01-02T03:11:08.288Z,96538.16
2023-01-02T03:13:42.549Z,96540.94
2023-01-02T03:16:14.142Z,96540.25
2023-01-02T03:18:52.734Z,96533.69
2023-01-02T03:21:30.943Z,96545.13
2023-01-02T03:24:01.940Z,96536.19
2023-01-02T03:26:32.452Z,96532.59
2023-01-02T03:29:05.237Z,96535.09
2023-01-02T03:31:39.987Z,96526.22
2023-01-02T03:34:11.306Z,96525.38
2023-01-02T03:36:42.273Z,96527.03
2023-01-02T03:39:14.160Z,96529.00
2023-01-02T03:41:45.745Z,96526.66
2023-01-02T03:44:15.463Z,96530.91
2023-01-02T03:46:48.933Z,96526.19
2023-01-02T03:49:23.175Z,96529.53
2023-01-02T03:51:50.822Z,96531.47
2023-01-02T03:54:19.672Z,96528.97
2023-01-02T03:56:57.510Z,96523.13
2023-01-02T03:59:30.673Z,96529.69
2023-01-02T04:02:05.275Z,96524.25
2023-01-02T04:04:43.062Z,96520.38
2023-01-02T04:07:19.696Z,96522.03
2023-01-02T04:09:50.467Z,96531.06
2023-01-02T04:12:21.747Z,96528.97
2023-01-02T04:14:53.126Z,96526.78
2023-01-02T04:17:25.375Z,96520.84
2023-01-02T04:19:56.435Z,96529.50
2023-01-02T04:22:29.470Z,96526.72
2023-01-02T04:25:02.528Z,96538.94
2023-01-02T04:27:34.696Z,96535.50
2023-01-02T04:30:02.837Z,96527.28
2023-01-02T04:32:36.405Z,96528.84
2023-01-02T04:35:09.052Z,96527.53
2023-01-02T04:37:39.203Z,96528.66
2023-01-02T04:40:12.062Z,96523.84
2023-01-02T04:42:39.578Z,96518.41
2023-01-02T04:45:08.081Z,96519.09
2023-01-02T04:47:36.932Z,96517.72
2023-01-02T04:50:04.620Z,96521.47
2023-01-02T04:52:37.001Z,96528.56
2023-01-02T04:55:05.336Z,96523.69
2023-01-02T04:57:32.926Z,96527.88
2023-01-02T05:00:00.489Z,96529.53
2023-01-02T05:02:28.836Z,96524.53
2023-01-02T05:04:57.737Z,96533.56
2023-01-02T05:07:25.253Z,96527.03
2023-01-02T05:09:52.716Z,96537.31
2023-01-02T05:12:20.191Z,96541.56
2023-01-02T05:14:47.682Z,96534.66
2023-01-02T05:17:15.177Z,96536.31
2023-01-02T05:19:42.746Z,96532.94
2023-01-02T05:22:31.337Z,96539.75
2023-01-02T05:24:58.902Z,96532.88
2023-01-02T05:27:26.433Z,96525.91
2023-01-02T05:29:53.938Z,96524.94
2023-01-02T05:32:21.425Z,96528.97
2023-01-02T05:34:48.914Z,96539.00
2023-01-02T05:37:17.748Z,96533.13
2023-01-02T05:39:45.254Z,96539.38
2023-01-02T05:42:12.780Z,96543.59
2023-01-02T05:44:40.273Z,96552.50
2023-01-02T05:47:10.852Z,96553.66
2023-01-02T05:49:40.930Z,96559.28
2023-01-02T05:52:08.439Z,96547.06
2023-01-02T05:54:37.251Z,96551.28
2023-01-02T05:57:04.940Z,96549.34
2023-01-02T05:59:35.942Z,96553.81
2023-01-02T06:02:04.006Z,96555.56
2023-01-02T06:04:31.799Z,96553.56
2023-01-02T06:06:59.323Z,96554.94
2023-01-02T06:09:26.815Z,96550.06
2023-01-02T06:11:55.723Z,96543.06
2023-01-02T06:14:24.048Z,96548.84
2023-01-02T06:16:51.598Z,96553.13
2023-01-02T06:19:19.081Z,96548.66
2023-01-02T06:21:46.582Z,96548.50
2023-01-02T06:24:14.044Z,96544.97
2023-01-02T06:26:41.525Z,96541.44
2023-01-02T06:29:11.011Z,96539.59
2023-01-02T06:31:40.037Z,96533.03
2023-01-02T06:34:08.155Z,96530.69
2023-01-02T06:36:35.742Z,96530.19
2023-01-02T06:39:03.574Z,96535.03
2023-01-02T06:41:31.564Z,96531.88
2023-01-02T06:43:59.060Z,96529.34
2023-01-02T06:46:27.904Z,96533.25
2023-01-02T06:48:55.403Z,96529.75
2023-01-02T06:51:24.242Z,96527.38
2023-01-02T06:53:52.069Z,96537.69
2023-01-02T06:56:21.144Z,96539.16
2023-01-02T06:58:49.276Z,96544.88
2023-01-02T07:01:18.959Z,96535.13
2023-01-02T07:03:47.938Z,96531.97
2023-01-02T07:06:17.421Z,96555.66
2023-01-02T07:08:45.268Z,96550.19
2023-01-02T07:11:15.374Z,96549.63
2023-01-02T07:13:44.150Z,96549.00
2023-01-02T07:16:13.505Z,96552.81
2023-01-02T07:18:41.198Z,96553.63
2023-01-02T07:21:11.837Z,96555.09
2023-01-02T07:23:39.738Z,96563.19
2023-01-02T07:26:08.137Z,96562.56
2023-01-02T07:28:36.594Z,96566.91
2023-01-02T07:31:08.042Z,96567.34
2023-01-02T07:33:36.286Z,96575.91
2023-01-02T07:36:06.291Z,96571.81
2023-01-02T07:38:35.966Z,96579.34
2023-01-02T07:41:03.446Z,96578.19
2023-01-02T07:43:31.104Z,96583.44
2023-01-02T07:46:03.766Z,96573.47
2023-01-02T07:48:31.481Z,96575.16
2023-01-02T07:51:01.612Z,96583.22
2023-01-02T07:53:29.227Z,96579.28
2023-01-02T07:55:59.856Z,96586.03
2023-01-02T07:58:27.965Z,96578.34
2023-01-02T08:00:59.884Z,96581.41
2023-01-02T08:03:32.064Z,96575.88
2023-01-02T08:06:03.987Z,96566.72
2023-01-02T08:08:31.459Z,96565.06
2023-01-02T08:11:00.298Z,96573.16
2023-01-02T08:13:27.767Z,96565.97
2023-01-02T08:15:55.255Z,96567.53
2023-01-02T08:18:22.735Z,96561.81
2023-01-02T08:20:50.221Z,96565.41
2023-01-02T08:23:17.703Z,96572.94
2023-01-02T08:25:45.168Z,96582.72
2023-01-02T08:28:13.995Z,96589.22
2023-01-02T08:30:41.603Z,96600.78
2023-01-02T08:33:09.143Z,96593.81
2023-01-02T08:35:38.951Z,96587.78
2023-01-02T08:38:06.821Z,96595.69
2023-01-02T08:40:34.377Z,96581.59
2023-01-02T08:43:01.870Z,96582.25
2023-01-02T08:45:31.043Z,96579.59
2023-01-02T08:47:58.538Z,96577.25
2023-01-02T08:50:26.222Z,96571.91
2023-01-02T08:52:53.770Z,96571.13
2023-01-02T08:55:21.258Z,96579.31
2023-01-02T08:57:48.721Z,96574.81
2023-01-02T09:00:16.863Z,96578.97
2023-01-02T09:02:45.759Z,96577.09
2023-01-02T09:05:13.355Z,96578.94
2023-01-02T09:07:40.851Z,96586.44
2023-01-02T09:10:09.338Z,96580.63
2023-01-02T09:12:36.875Z,96583.63
2023-01-02T09:15:04.972Z,96586.31
2023-01-02T09:17:32.447Z,96594.94
2023-01-02T09:20:01.255Z,96598.84
2023-01-02T09:22:28.719Z,96601.78
2023-01-02T09:24:56.219Z,96604.56
2023-01-02T09:27:23.805Z,96616.22
2023-01-02T09:29:53.109Z,96616.16
2023-01-02T09:32:20.978Z,96615.31
2023-01-02T09:34:50.814Z,96614.88
2023-01-02T09:37:19.633Z,96608.94
2023-01-02T09:39:47.402Z,96603.25
2023-01-02T09:42:18.025Z,96594.91
2023-01-02T09:44:49.211Z,96595.69
2023-01-02T09:47:21.001Z,96609.25
2023-01-02T09:49:50.668Z,96602.22
2023-01-02T09:52:24.043Z,96589.94
2023-01-02T09:54:51.648Z,96582.31
2023-01-02T09:57:40.776Z,96578.31
2023-01-02T10:00:15.799Z,96580.91
2023-01-02T10:03:07.950Z,96569.06
2023-01-02T10:05:57.638Z,96566.19
2023-01-02T10:08:33.588Z,96579.06
2023-01-02T10:11:11.388Z,96579.72
2023-01-02T10:16:36.759Z,96576.19
2023-01-02T10:19:08.287Z,96571.38
2023-01-02T10:21:38.501Z,96567.06
2023-01-02T10:24:12.761Z,96552.91
2023-01-02T10:26:46.616Z,96537.19
2023-01-02T10:29:21.117Z,96545.38
2023-01-02T10:31:53.978Z,96562.78
2023-01-02T10:34:24.356Z,96551.84
2023-01-02T10:36:52.765Z,96558.34
2023-01-02T10:39:23.522Z,96547.03
2023-01-02T10:41:54.999Z,96550.13
2023-01-02T10:44:27.928Z,96561.56
2023-01-02T10:46:56.524Z,96559.63
2023-01-02T10:49:26.747Z,96557.06
2023-01-02T10:52:04.028Z,96557.91
2023-01-02T10:54:55.040Z,96564.72
2023-01-02T10:57:34.888Z,96570.63
2023-01-02T11:00:04.246Z,96570.47
2023-01-02T11:02:37.878Z,96566.03
2023-01-02T11:05:07.313Z,96562.59
2023-01-02T11:07:38.917Z,96557.44
2023-01-02T11:10:23.215Z,96565.66
2023-01-02T11:12:50.734Z,96553.41
2023-01-02T11:15:26.153Z,96540.88
2023-01-02T11:17:54.315Z,96536.31
2023-01-02T11:20:28.736Z,96534.75
2023-01-02T11:22:58.917Z,96529.75
2023-01-02T11:25:29.962Z,96530.34
2023-01-02T11:27:59.303Z,96532.38
2023-01-02T11:30:33.330Z,96525.00
2023-01-02T11:33:08.179Z,96525.38
2023-01-02T11:35:39.662Z,96525.78
2023-01-02T11:38:15.399Z,96534.03
2023-01-02T11:40:55.610Z,96535.78
2023-01-02T11:43:45.711Z,96533.66
2023-01-02T11:46:23.505Z,96532.28
2023-01-02T11:48:53.792Z,96530.50
2023-01-02T11:51:22.631Z,96519.91
2023-01-02T11:53:53.599Z,96521.44
2023-01-02T11:56:27.984Z,96530.38
2023-01-02T11:59:02.120Z,96530.19
2023-01-02T12:01:38.117Z,96534.75
2023-01-02T12:04:06.188Z,96521.00
2023-01-02T12:06:47.243Z,96525.72
2023-01-02T12:09:20.890Z,96521.69
2023-01-02T12:12:09.404Z,96526.66
2023-01-02T12:14:55.012Z,96532.19
2023-01-02T12:17:31.085Z,96538.84
2023-01-02T12:20:18.061Z,96533.41
2023-01-02T12:23:14.822Z,96536.41
2023-01-02T12:25:52.432Z,96530.00
2023-01-02T12:28:45.080Z,96535.72
2023-01-02T12:31:24.553Z,96541.28
2023-01-02T12:34:00.706Z,96529.75
2023-01-02T12:36:44.950Z,96537.06
2023-01-02T12:39:50.116Z,96530.31
2023-01-02T12:42:31.055Z,96543.53
2023-01-02T12:45:00.307Z,96542.25
2023-01-02T12:47:56.589Z,96549.41
2023-01-02T12:50:49.176Z,96542.97
2023-01-02T12:53:35.563Z,96543.63
2023-01-02T12:56:11.496Z,96551.94
2023-01-02T12:58:51.755Z,96553.50
2023-01-02T13:01:26.796Z,96554.44
2023-01-02T13:04:03.393Z,96554.72
2023-01-02T13:06:45.769Z,96564.34
2023-01-02T13:09:23.140Z,96565.53
2023-01-02T13:11:57.553Z,96568.69
2023-01-02T13:14:32.704Z,96569.72
2023-01-02T13:17:13.685Z,96567.00
2023-01-02T13:19:46.646Z,96578.31
2023-01-02T13:22:27.886Z,96573.47
2023-01-02T13:24:57.430Z,96571.28
2023-01-02T13:27:25.492Z,96568.94
2023-01-02T13:29:54.184Z,96565.16
2023-01-02T13:32:29.669Z,96577.47
2023-01-02T13:35:01.840Z,96569.38
2023-01-02T13:37:30.724Z,96572.09
2023-01-02T13:40:00.768Z,96580.00
2023-01-02T13:42:49.579Z,96573.97
2023-01-02T13:45:21.595Z,96575.78
2023-01-02T13:47:55.540Z,96583.06
2023-01-02T13:50:28.244Z,96586.50
2023-01-02T13:53:27.873Z,96586.03
2023-01-02T13:56:05.640Z,96581.59
2023-01-02T13:58:48.168Z,96580.63
2023-01-02T14:01:34.541Z,96574.94
2023-01-02T14:04:29.485Z,96591.34
2023-01-02T14:07:27.195Z,96589.84
2023-01-02T14:10:08.116Z,96583.91
2023-01-02T14:12:43.796Z,96584.28
2023-01-02T14:15:18.929Z,96590.56
2023-01-02T14:17:54.858Z,96581.78
2023-01-02T14:20:27.251Z,96592.63
2023-01-02T14:22:57.380Z,96603.75
2023-01-02T14:25:26.035Z,96608.78
2023-01-02T14:27:56.671Z,96606.28
2023-01-02T14:30:31.251Z,96600.94
2023-01-02T14:33:00.385Z,96605.22
2023-01-02T14:35:33.209Z,96600.66
2023-01-02T14:38:11.257Z,96594.06
2023-01-02T14:40:40.689Z,96592.69
2023-01-02T14:43:30.714Z,96591.31
2023-01-02T14:46:02.762Z,96592.69
2023-01-02T14:48:36.284Z,96590.88
2023-01-02T14:51:09.993Z,96595.13
2023-01-02T14:53:42.394Z,96604.50
2023-01-02T14:56:15.682Z,96596.19
2023-01-02T14:58:44.667Z,96593.53
2023-01-02T15:01:16.419Z,96605.66
2023-01-02T15:04:14.604Z,96606.31
2023-01-02T15:06:46.458Z,96620.53
2023-01-02T15:09:30.520Z,96630.63
2023-01-02T15:12:16.781Z,96633.47
2023-01-02T15:14:44.508Z,96634.41
2023-01-02T15:17:14.639Z,96633.34
2023-01-02T15:19:43.880Z,96634.09
2023-01-02T15:22:14.673Z,96636.75
2023-01-02T15:24:48.866Z,96640.75
2023-01-02T15:27:23.909Z,96646.19
2023-01-02T15:29:53.657Z,96659.13
2023-01-02T15:32:23.526Z,96650.00
2023-01-02T15:34:51.622Z,96658.88
2023-01-02T15:37:23.536Z,96661.78
2023-01-02T15:39:53.250Z,96658.06
2023-01-02T15:42:56.325Z,96659.66
2023-01-02T15:45:23.826Z,96675.81
2023-01-02T15:47:52.685Z,96683.78
2023-01-02T15:50:23.279Z,96686.78
2023-01-02T15:52:58.093Z,96694.41
2023-01-02T15:55:26.345Z,96697.66
2023-01-02T15:57:55.432Z,96704.47
2023-01-02T16:00:35.964Z,96705.00
2023-01-02T16:03:04.325Z,96711.75
2023-01-02T16:05:46.169Z,96713.19
2023-01-02T16:08:20.714Z,96712.13
2023-01-02T16:10:51.305Z,96712.97
2023-01-02T16:13:40.471Z,96710.59
2023-01-02T16:16:15.890Z,96711.06
2023-01-02T16:18:47.688Z,96730.09
2023-01-02T16:21:16.892Z,96722.97
2023-01-02T16:23:51.153Z,96727.28
2023-01-02T16:26:20.805Z,96728.88
2023-01-02T16:28:51.237Z,96722.34
2023-01-02T16:31:20.904Z,96726.22
2023-01-02T16:33:48.508Z,96728.50
2023-01-02T16:36:22.473Z,96724.66
2023-01-02T16:38:55.690Z,96730.88
2023-01-02T16:42:15.551Z,96738.69
2023-01-02T16:44:43.074Z,96738.03
2023-01-02T16:47:11.257Z,96747.72
2023-01-02T16:49:39.174Z,96735.78
2023-01-02T16:52:06.767Z,96748.16
2023-01-02T16:54:35.587Z,96750.66
2023-01-02T16:57:06.434Z,96747.88
2023-01-02T16:59:35.909Z,96753.03
2023-01-02T17:02:03.569Z,96758.00
2023-01-02T17:04:31.506Z,96758.84
2023-01-02T17:06:59.001Z,96763.31
2023-01-02T17:09:26.474Z,96766.66
2023-01-02T17:12:01.095Z,96775.69
2023-01-02T17:14:29.071Z,96774.47
2023-01-02T17:16:56.775Z,96776.25
2023-01-02T17:19:24.692Z,96775.00
2023-01-02T17:21:52.570Z,96768.91
2023-01-02T17:24:20.137Z,96774.50
2023-01-02T17:26:48.049Z,96787.25
2023-01-02T17:29:16.923Z,96784.16
2023-01-02T17:31:44.484Z,96787.03
2023-01-02T17:34:11.971Z,96782.97
2023-01-02T17:36:39.452Z,96791.94
2023-01-02T17:39:07.009Z,96784.88
2023-01-02T17:41:34.497Z,96779.72
2023-01-02T17:44:03.748Z,96783.03
2023-01-02T17:49:21.923Z,96790.34
2023-01-02T17:51:49.508Z,96792.06
2023-01-02T17:54:17.330Z,96802.94
2023-01-02T17:56:45.178Z,96811.59
2023-01-02T17:59:13.923Z,96791.00
2023-01-02T18:01:42.852Z,96807.53
2023-01-02T18:04:10.473Z,96801.44
2023-01-02T18:06:38.023Z,96824.88
2023-01-02T18:09:05.926Z,96823.50
2023-01-02T18:11:34.569Z,96817.28
2023-01-02T18:14:04.195Z,96809.03
2023-01-02T18:16:35.390Z,96812.97
2023-01-02T18:19:07.651Z,96817.91
2023-01-02T18:21:35.551Z,96822.41
2023-01-02T18:24:08.723Z,96827.19
2023-01-02T18:26:36.216Z,96819.31
2023-01-02T18:29:09.676Z,96819.00
2023-01-02T18:31:40.670Z,96821.03
2023-01-02T18:34:46.359Z,96824.63
2023-01-02T18:37:15.745Z,96828.25
2023-01-02T18:39:43.896Z,96824.25
2023-01-02T18:42:13.639Z,96825.38
2023-01-02T18:44:42.694Z,96843.81
2023-01-02T18:47:24.869Z,96839.78
2023-01-02T18:49:54.955Z,96848.06
2023-01-02T18:52:28.263Z,96850.59
2023-01-02T18:55:00.348Z,96853.69
2023-01-02T18:57:32.697Z,96856.47
2023-01-02T19:00:14.047Z,96859.03
2023-01-02T19:02:53.215Z,96870.00
2023-01-02T19:05:25.455Z,96875.31
2023-01-02T19:07:55.139Z,96871.69
2023-01-02T19:10:36.918Z,96870.16
2023-01-02T19:13:07.937Z,96873.19
2023-01-02T19:15:42.038Z,96868.75
2023-01-02T19:18:21.606Z,96870.28
2023-01-02T19:20:55.134Z,96874.09
2023-01-02T19:23:28.210Z,96861.97
2023-01-02T19:25:56.830Z,96871.22
2023-01-02T19:28:28.296Z,96881.19
2023-01-02T19:30:56.604Z,96878.56
2023-01-02T19:33:39.117Z,96888.06
2023-01-02T19:36:16.668Z,96883.50
2023-01-02T19:38:45.730Z,96879.56
2023-01-02T19:41:13.451Z,96883.38
2023-01-02T19:43:40.921Z,96876.31
2023-01-02T19:46:08.650Z,96881.19
2023-01-02T19:48:36.173Z,96882.38
2023-01-02T19:51:03.654Z,96887.16
2023-01-02T19:53:32.502Z,96887.88
2023-01-02T19:56:00.006Z,96892.78
2023-01-02T19:58:27.500Z,96901.13
2023-01-02T20:00:54.999Z,96897.94
2023-01-02T20:03:22.595Z,96892.09
2023-01-02T20:05:50.226Z,96900.81
2023-01-02T20:08:17.723Z,96900.91
2023-01-02T20:10:46.564Z,96899.50
2023-01-02T20:13:14.041Z,96907.03
2023-01-02T20:15:41.537Z,96909.00
2023-01-02T20:18:09.298Z,96901.47
2023-01-02T20:20:36.889Z,96906.88
2023-01-02T20:23:04.420Z,96902.66
2023-01-02T20:25:32.041Z,96910.34
2023-01-02T20:28:03.194Z,96915.75
2023-01-02T20:30:30.739Z,96914.13
2023-01-02T20:32:58.215Z,96913.59
2023-01-02T20:35:25.716Z,96916.72
2023-01-02T20:37:53.227Z,96917.81
2023-01-02T20:40:20.753Z,96923.91
2023-01-02T20:42:48.321Z,96919.09
2023-01-02T20:45:17.157Z,96919.97
2023-01-02T20:47:44.670Z,96917.03
2023-01-02T20:50:12.269Z,96920.97
2023-01-02T20:52:39.770Z,96921.41
2023-01-02T20:55:08.133Z,96929.16
2023-01-02T20:57:35.721Z,96935.81
2023-01-02T21:00:04.909Z,96939.09
2023-01-02T21:02:33.872Z,96941.84
2023-01-02T21:05:01.691Z,96939.03
2023-01-02T21:07:29.202Z,96938.00
2023-01-02T21:09:58.969Z,96947.03
2023-01-02T21:12:44.223Z,96945.97
2023-01-02T21:15:31.838Z,96953.22
2023-01-02T21:18:00.773Z,96952.38
2023-01-02T21:20:28.311Z,96972.28
2023-01-02T21:22:56.522Z,96959.63
2023-01-02T21:25:24.116Z,96965.94
2023-01-02T21:27:51.641Z,96957.28
2023-01-02T21:30:19.235Z,96961.22
2023-01-02T21:32:46.776Z,96972.25
2023-01-02T21:35:15.621Z,96970.13
2023-01-02T21:37:43.144Z,96969.94
2023-01-02T21:40:11.284Z,96981.88
2023-01-02T21:42:44.494Z,96980.91
2023-01-02T21:45:12.494Z,96977.41
2023-01-02T21:47:39.978Z,96981.44
2023-01-02T21:50:07.962Z,96985.81
2023-01-02T21:52:36.978Z,96984.28
2023-01-02T21:55:04.913Z,96990.38
2023-01-02T21:58:11.062Z,97004.75
2023-01-02T22:00:22.552Z,97019.47
2023-01-02T22:02:50.269Z,97018.06
2023-01-02T22:05:19.094Z,97020.69
2023-01-02T22:07:48.131Z,97025.75
2023-01-02T22:10:17.050Z,97021.63
2023-01-02T22:12:44.665Z,97021.63
2023-01-02T22:15:13.335Z,97027.56
2023-01-02T22:17:41.403Z,97022.69
2023-01-02T22:20:10.228Z,97026.66
2023-01-02T22:22:37.872Z,97032.38
2023-01-02T22:25:08.047Z,97040.47
2023-01-02T22:27:35.598Z,97040.63
2023-01-02T22:30:23.342Z,97047.31
2023-01-02T22:32:51.584Z,97053.19
2023-01-02T22:35:19.370Z,97058.63
2023-01-02T22:37:46.858Z,97057.81
2023-01-02T22:40:16.074Z,97053.47
2023-01-02T22:43:04.815Z,97062.00
2023-01-02T22:45:36.933Z,97066.88
2023-01-02T22:48:08.470Z,97073.13
2023-01-02T22:50:44.418Z,97073.16
2023-01-02T22:53:19.328Z,97075.50
2023-01-02T22:55:48.465Z,97089.88
2023-01-02T22:58:16.043Z,97078.72
2023-01-02T23:00:43.657Z,97076.78
2023-01-02T23:03:13.455Z,97071.19
2023-01-02T23:05:41.285Z,97082.34
2023-01-02T23:08:09.186Z,97085.00
2023-01-02T23:10:36.681Z,97089.88
2023-01-02T23:13:05.725Z,97100.22
2023-01-02T23:15:33.233Z,97102.59
2023-01-02T23:18:18.643Z,97105.81
2023-01-02T23:20:46.125Z,97109.69
2023-01-02T23:23:13.651Z,97119.63
2023-01-02T23:25:43.975Z,97119.06
2023-01-02T23:28:31.888Z,97115.22
2023-01-02T23:31:00.257Z,97115.50
2023-01-02T23:33:27.910Z,97121.72
2023-01-02T23:35:55.395Z,97123.09
2023-01-02T23:38:22.972Z,97117.81
2023-01-02T23:40:50.572Z,97124.91
2023-01-02T23:43:19.423Z,97111.31
2023-01-02T23:45:46.966Z,97126.53
2023-01-02T23:48:14.511Z,97132.06
2023-01-02T23:50:46.046Z,97130.13
2023-01-02T23:53:13.924Z,97145.34
2023-01-02T23:55:41.664Z,97153.75
2023-01-02T23:58:09.965Z,97162.38
